Time;durP1;ratioP1;P1;durP2;ratioP2;P2;SDS_P1;SDS_P2;PMS_P1;PMS_P2;Temp;Humidity;BMP_temperature;BMP_pressure;BME280_temperature;BME280_humidity;BME280_pressure;Samples;Min_cycle;Max_cycle;Signal;HPM_P1;HPM_P2
2023/03/03 00:02:20;;;;;;;13.88;5.88;;;;;;;0.57;100.00;101511.44;5148621;28;20081;-75
2023/03/03 00:04:50;;;;;;;17.80;6.80;;;;;;;0.59;100.00;101504.63;5140468;28;20026;-76
2023/03/03 00:07:22;;;;;;;13.82;5.65;;;;;;;0.60;100.00;101497.78;5143913;28;20026;-76
2023/03/03 00:09:52;;;;;;;15.75;6.18;;;;;;;0.79;100.00;101497.28;5137639;28;20130;-76
2023/03/03 00:12:28;;;;;;;16.50;6.88;;;;;;;0.73;100.00;101504.91;5137421;28;20550;-75
2023/03/03 00:14:59;;;;;;;16.10;6.72;;;;;;;0.60;100.00;101506.38;5133049;28;20121;-76
2023/03/03 00:17:31;;;;;;;17.02;7.00;;;;;;;0.73;100.00;101505.75;5128285;28;20525;-75
2023/03/03 00:20:22;;;;;;;14.70;5.82;;;;;;;0.67;100.00;101504.78;5136621;28;20142;-74
2023/03/03 00:22:52;;;;;;;14.70;6.22;;;;;;;0.73;100.00;101512.63;5132145;28;20495;-75
2023/03/03 00:25:30;;;;;;;14.75;5.90;;;;;;;0.71;100.00;101515.16;5129971;28;20031;-76
2023/03/03 00:28:15;;;;;;;14.85;6.47;;;;;;;0.69;100.00;101513.41;5129778;28;20414;-76
2023/03/03 00:30:45;;;;;;;16.10;5.82;;;;;;;0.81;100.00;101511.94;5133765;28;20281;-75
2023/03/03 00:33:27;;;;;;;17.10;6.55;;;;;;;0.52;100.00;101530.22;5147889;28;20064;-75
2023/03/03 00:36:20;;;;;;;17.08;5.93;;;;;;;0.56;100.00;101532.84;5121551;28;20029;-76
2023/03/03 00:38:50;;;;;;;16.23;6.13;;;;;;;0.55;100.00;101543.97;5144801;28;20037;-75
2023/03/03 00:41:26;;;;;;;15.50;5.88;;;;;;;0.45;100.00;101544.66;5133233;28;20063;-74
2023/03/03 00:43:56;;;;;;;;;;;;;;;0.42;100.00;101544.56;5133454;28;20035;-75
2023/03/03 00:46:29;;;;;;;11.93;4.97;;;;;;;0.52;100.00;101543.94;5129677;28;19949;-76
2023/03/03 00:48:59;;;;;;;12.80;5.20;;;;;;;0.61;100.00;101538.97;5133433;28;20042;-76
2023/03/03 00:51:33;;;;;;;12.30;5.22;;;;;;;0.63;100.00;101542.44;5132961;28;20042;-75
2023/03/03 00:54:04;;;;;;;11.70;4.75;;;;;;;0.71;100.00;101535.72;5130987;28;20027;-76
2023/03/03 00:56:34;;;;;;;15.75;5.70;;;;;;;0.65;100.00;101537.31;5132729;28;20089;-76
2023/03/03 00:59:06;;;;;;;14.40;5.72;;;;;;;0.72;100.00;101537.47;5130144;28;20034;-72
2023/03/03 01:01:36;;;;;;;16.85;5.70;;;;;;;0.49;100.00;101533.59;5138850;28;20444;-75
2023/03/03 01:04:06;;;;;;;13.82;5.57;;;;;;;0.51;100.00;101536.16;5149241;28;20317;-75
2023/03/03 01:06:37;;;;;;;12.07;5.03;;;;;;;0.53;100.00;101539.66;5133909;28;20544;-76
2023/03/03 01:09:07;;;;;;;13.57;5.07;;;;;;;0.62;100.00;101535.56;5130124;28;20050;-76
2023/03/03 01:11:37;;;;;;;14.60;5.63;;;;;;;0.48;100.00;101526.72;5115010;28;20058;-75
2023/03/03 01:14:08;;;;;;;14.13;5.53;;;;;;;0.57;100.00;101526.03;5142216;28;20038;-76
2023/03/03 01:16:40;;;;;;;12.38;5.32;;;;;;;0.36;100.00;101526.47;5121607;28;20023;-76
2023/03/03 01:19:11;;;;;;;12.60;5.57;;;;;;;0.40;100.00;101529.97;5131611;28;20065;-76
2023/03/03 01:21:41;;;;;;;15.15;6.55;;;;;;;0.58;100.00;101518.31;5141941;28;20030;-72
2023/03/03 01:24:11;;;;;;;14.70;5.80;;;;;;;0.60;100.00;101526.97;5148471;28;20041;-74
2023/03/03 01:26:42;;;;;;;14.85;5.75;;;;;;;0.71;100.00;101520.31;5107440;28;20102;-75
2023/03/03 01:29:12;;;;;;;14.07;5.68;;;;;;;0.65;100.00;101530.47;5126576;28;20404;-75
2023/03/03 01:31:42;;;;;;;13.73;5.93;;;;;;;0.60;100.00;101519.25;5141946;28;20269;-76
2023/03/03 01:34:13;;;;;;;16.67;6.60;;;;;;;0.59;100.00;101520.06;5135820;28;20060;-76
2023/03/03 01:36:43;;;;;;;17.30;6.28;;;;;;;0.60;100.00;101520.94;5137356;28;20043;-75
2023/03/03 01:39:13;;;;;;;18.20;6.50;;;;;;;0.71;100.00;101520.31;5150468;28;20038;-75
2023/03/03 01:41:44;;;;;;;18.00;6.95;;;;;;;0.61;100.00;101508.13;5127825;28;20322;-75
2023/03/03 01:44:15;;;;;;;15.30;6.55;;;;;;;0.75;100.00;101504.06;5110333;29;20031;-75
2023/03/03 01:46:59;;;;;;;14.95;5.90;;;;;;;0.69;100.00;101506.56;5135469;28;20030;-75
2023/03/03 01:49:48;;;;;;;17.05;6.53;;;;;;;0.72;100.00;101506.59;5143586;28;20030;-75
2023/03/03 01:52:32;;;;;;;16.70;6.18;;;;;;;0.75;100.00;101522.09;5133384;28;20037;-77
2023/03/03 01:55:08;;;;;;;19.67;6.47;;;;;;;0.70;100.00;101528.00;5139108;28;20038;-75
2023/03/03 01:57:45;;;;;;;16.42;6.85;;;;;;;0.71;100.00;101515.16;5133679;28;20024;-76
2023/03/03 02:00:16;;;;;;;19.20;6.93;;;;;;;0.68;100.00;101512.53;5131883;28;20018;-76
2023/03/03 02:02:47;;;;;;;18.05;6.47;;;;;;;0.77;100.00;101524.69;5122192;28;20035;-75
2023/03/03 02:05:18;;;;;;;13.80;6.22;;;;;;;0.61;100.00;101533.84;5133728;28;20031;-76
2023/03/03 02:07:48;;;;;;;17.65;7.00;;;;;;;0.60;100.00;101518.38;5148364;28;20045;-74
2023/03/03 02:10:20;;;;;;;21.15;7.22;;;;;;;0.68;100.00;101522.81;5142833;28;20030;-76
2023/03/03 02:12:55;;;;;;;17.30;6.43;;;;;;;0.73;100.00;101513.47;5133801;28;20113;-76
2023/03/03 02:15:36;;;;;;;13.98;4.60;;;;;;;0.71;100.00;101499.72;5129527;28;20022;-75
2023/03/03 02:18:15;;;;;;;19.73;7.47;;;;;;;0.65;100.00;101507.34;5146653;28;20034;-76
2023/03/03 02:21:03;;;;;;;17.70;6.50;;;;;;;0.78;100.00;101493.00;5126932;28;20538;-75
2023/03/03 02:23:44;;;;;;;18.23;6.82;;;;;;;0.81;100.00;101498.19;5143445;28;20069;-75
2023/03/03 02:26:17;;;;;;;18.02;6.85;;;;;;;0.71;100.00;101499.72;5137986;28;20024;-75
2023/03/03 02:28:48;;;;;;;21.05;7.15;;;;;;;0.58;100.00;101491.75;5138513;28;20509;-74
2023/03/03 02:31:23;;;;;;;18.05;6.93;;;;;;;0.54;100.00;101501.09;5143591;28;20043;-76
2023/03/03 02:33:54;;;;;;;;;;;;;;;0.63;100.00;101498.72;5130869;28;20042;-76
2023/03/03 02:36:28;;;;;;;20.77;7.00;;;;;;;0.59;100.00;101488.34;5154184;28;19918;-76
2023/03/03 02:39:10;;;;;;;21.67;7.68;;;;;;;0.75;100.00;101486.06;5142407;28;20097;-76
2023/03/03 02:42:08;;;;;;;23.42;7.15;;;;;;;0.61;100.00;101484.09;5133960;28;20046;-76
2023/03/03 02:44:39;;;;;;;22.73;7.90;;;;;;;0.70;100.00;101486.84;5129941;28;20604;-75
2023/03/03 02:47:09;;;;;;;23.33;8.02;;;;;;;0.92;100.00;101494.13;5130249;28;20038;-76
2023/03/03 02:49:41;;;;;;;17.25;6.90;;;;;;;0.92;100.00;101484.66;5131381;28;20054;-77
2023/03/03 02:52:13;;;;;;;21.42;7.18;;;;;;;1.01;100.00;101484.84;5131762;28;20089;-73
2023/03/03 02:54:44;;;;;;;21.27;7.15;;;;;;;1.03;100.00;101483.16;5137917;28;20492;-76
2023/03/03 02:57:14;;;;;;;19.27;6.82;;;;;;;0.94;100.00;101485.59;5142352;28;20096;-75
2023/03/03 02:59:44;;;;;;;19.23;6.82;;;;;;;0.72;100.00;101478.31;5142393;28;20031;-76
2023/03/03 03:02:14;;;;;;;16.15;6.65;;;;;;;0.78;100.00;101478.44;5128504;28;20162;-75
2023/03/03 03:04:45;;;;;;;17.55;6.90;;;;;;;0.76;100.00;101480.09;5133783;28;20077;-75
2023/03/03 03:07:15;;;;;;;20.27;7.68;;;;;;;0.90;100.00;101483.78;5137593;28;20031;-76
2023/03/03 03:09:46;;;;;;;18.40;7.03;;;;;;;0.87;100.00;101483.72;5129966;28;20050;-76
2023/03/03 03:12:18;;;;;;;16.38;5.97;;;;;;;1.01;100.00;101482.28;5129575;28;20038;-76
2023/03/03 03:14:49;;;;;;;16.33;6.53;;;;;;;0.91;100.00;101488.09;5114280;28;20086;-76
2023/03/03 03:17:19;;;;;;;15.00;5.72;;;;;;;0.95;100.00;101484.75;5137959;28;20030;-76
2023/03/03 03:19:50;;;;;;;16.15;6.38;;;;;;;0.55;100.00;101484.84;5112762;28;20043;-76
2023/03/03 03:22:20;;;;;;;15.27;5.75;;;;;;;0.61;100.00;101494.38;5122582;28;20544;-76
2023/03/03 03:24:50;;;;;;;16.83;6.13;;;;;;;0.74;100.00;101489.50;5137700;28;20035;-76
2023/03/03 03:27:22;;;;;;;17.20;6.47;;;;;;;0.83;100.00;101497.38;5140781;28;20037;-75
2023/03/03 03:29:52;;;;;;;15.52;5.43;;;;;;;0.83;100.00;101499.06;5133602;28;20066;-77
2023/03/03 03:32:22;;;;;;;18.08;6.30;;;;;;;1.01;100.00;101492.56;5139953;28;20107;-76
2023/03/03 03:34:53;;;;;;;23.15;6.90;;;;;;;0.87;100.00;101501.75;5137052;28;20022;-75
2023/03/03 03:37:23;;;;;;;15.80;6.03;;;;;;;0.94;100.00;101502.72;5142257;28;21360;-73
2023/03/03 03:39:53;;;;;;;17.80;5.82;;;;;;;0.86;100.00;101489.72;5140567;28;20038;-76
2023/03/03 03:42:24;;;;;;;21.73;8.07;;;;;;;0.92;100.00;101494.97;5132010;28;20039;-76
2023/03/03 03:44:54;;;;;;;17.75;6.30;;;;;;;0.88;100.00;101488.03;5138975;28;20035;-75
2023/03/03 03:47:24;;;;;;;19.52;7.57;;;;;;;0.80;100.00;101492.19;5130468;28;20314;-75
2023/03/03 03:49:55;;;;;;;17.73;7.43;;;;;;;0.94;100.00;101495.00;5130379;28;20146;-73
2023/03/03 03:52:25;;;;;;;18.30;7.35;;;;;;;1.02;100.00;101496.88;5112932;28;20023;-76
2023/03/03 03:54:55;;;;;;;19.67;7.63;;;;;;;0.88;100.00;101502.63;5133740;28;20042;-76
2023/03/03 03:57:26;;;;;;;20.90;7.18;;;;;;;1.05;100.00;101511.50;5138270;28;20039;-76
2023/03/03 03:59:56;;;;;;;20.73;7.75;;;;;;;1.08;100.00;101506.41;5129354;28;20050;-76
2023/03/03 04:02:26;;;;;;;18.08;6.95;;;;;;;1.12;100.00;101509.06;5129028;28;20364;-76
2023/03/03 04:04:57;;;;;;;19.75;7.13;;;;;;;1.09;100.00;101511.56;5128925;28;20031;-76
2023/03/03 04:07:27;;;;;;;21.80;7.82;;;;;;;1.00;100.00;101521.72;5134342;28;20038;-75
2023/03/03 04:09:58;;;;;;;20.85;7.88;;;;;;;1.07;100.00;101522.69;5136099;28;20035;-77
2023/03/03 04:12:28;;;;;;;18.92;6.85;;;;;;;0.90;100.00;101527.50;5131663;28;20095;-75
2023/03/03 04:14:58;;;;;;;17.33;7.18;;;;;;;1.06;100.00;101514.09;5146602;28;20034;-76
2023/03/03 04:17:29;;;;;;;22.73;8.13;;;;;;;1.11;100.00;101517.63;5126604;28;20042;-75
2023/03/03 04:19:59;;;;;;;20.13;7.22;;;;;;;1.04;100.00;101513.19;5144712;28;20443;-76
2023/03/03 04:22:34;;;;;;;20.05;6.97;;;;;;;1.12;100.00;101519.34;5137879;28;20033;-74
2023/03/03 04:25:06;;;;;;;18.42;7.10;;;;;;;0.99;100.00;101514.84;5138252;28;20089;-75
2023/03/03 04:27:37;;;;;;;22.38;7.70;;;;;;;1.13;100.00;101512.50;5135453;28;20430;-76
2023/03/03 04:30:08;;;;;;;22.25;7.35;;;;;;;1.25;100.00;101515.28;5122319;28;20035;-76
2023/03/03 04:32:39;;;;;;;24.30;7.60;;;;;;;1.23;100.00;101511.81;5139577;28;20070;-75
2023/03/03 04:35:10;;;;;;;25.60;7.65;;;;;;;1.13;100.00;101517.63;5119917;28;20018;-76
2023/03/03 04:37:40;;;;;;;20.70;7.32;;;;;;;1.24;100.00;101522.13;5147377;28;20034;-76
2023/03/03 04:40:11;;;;;;;23.85;7.68;;;;;;;1.18;100.00;101524.59;5142751;28;20028;-76
2023/03/03 04:42:41;;;;;;;19.48;6.97;;;;;;;1.20;100.00;101525.50;5126179;28;20085;-76
2023/03/03 04:45:11;;;;;;;19.83;6.95;;;;;;;1.20;100.00;101527.22;5133329;28;20556;-75
2023/03/03 04:47:42;;;;;;;19.33;6.90;;;;;;;1.10;100.00;101520.16;5118448;28;20034;-76
2023/03/03 04:50:12;;;;;;;22.83;7.97;;;;;;;1.10;100.00;101521.00;5151241;28;20080;-75
2023/03/03 04:52:42;;;;;;;20.25;7.55;;;;;;;1.06;100.00;101529.53;5146150;28;20038;-75
2023/03/03 04:55:13;;;;;;;23.83;7.82;;;;;;;1.03;100.00;101526.91;5142828;28;20044;-77
2023/03/03 04:57:43;;;;;;;21.05;7.95;;;;;;;1.07;100.00;101526.13;5136067;28;20097;-73
2023/03/03 05:00:14;;;;;;;24.73;8.02;;;;;;;1.06;100.00;101539.81;5142697;28;20030;-73
2023/03/03 05:02:46;;;;;;;20.23;7.40;;;;;;;1.09;100.00;101539.88;5135662;28;20110;-75
2023/03/03 05:05:17;;;;;;;23.75;7.20;;;;;;;1.04;100.00;101535.50;5137245;28;20038;-75
2023/03/03 05:07:47;;;;;;;19.73;6.10;;;;;;;0.86;100.00;101525.72;5133325;28;20027;-75
2023/03/03 05:10:18;;;;;;;17.65;6.05;;;;;;;0.90;100.00;101527.50;5141498;28;20515;-75
2023/03/03 05:12:48;;;;;;;18.98;6.88;;;;;;;1.05;100.00;101521.81;5112876;28;20134;-75
2023/03/03 05:15:18;;;;;;;21.42;7.45;;;;;;;1.05;100.00;101520.06;5123414;28;20520;-75
2023/03/03 05:17:52;;;;;;;22.33;7.60;;;;;;;1.09;100.00;101521.84;5126027;28;20184;-76
2023/03/03 05:20:23;;;;;;;22.88;7.03;;;;;;;1.17;100.00;101516.84;5118296;28;20066;-72
2023/03/03 05:22:54;;;;;;;20.05;6.97;;;;;;;1.05;100.00;101512.34;5114379;28;20039;-76
2023/03/03 05:25:24;;;;;;;25.77;7.55;;;;;;;0.87;100.00;101511.19;5139505;28;20025;-76
2023/03/03 05:27:54;;;;;;;20.65;7.22;;;;;;;0.96;100.00;101507.06;5135526;28;20150;-76
2023/03/03 05:30:25;;;;;;;22.85;7.10;;;;;;;1.01;100.00;101505.44;5130445;28;20025;-75
2023/03/03 05:32:55;;;;;;;21.35;7.13;;;;;;;1.25;100.00;101504.97;5138552;28;20502;-76
2023/03/03 05:35:26;;;;;;;23.50;8.32;;;;;;;1.17;100.00;101496.25;5135818;28;20027;-75
2023/03/03 05:37:57;;;;;;;19.80;7.10;;;;;;;1.11;100.00;101486.75;5146079;28;20399;-76
2023/03/03 05:40:27;;;;;;;19.75;7.28;;;;;;;1.04;100.00;101486.63;5132943;28;20441;-76
2023/03/03 05:42:57;;;;;;;19.63;6.90;;;;;;;1.05;100.00;101488.34;5126286;28;20270;-76
2023/03/03 05:45:28;;;;;;;17.23;6.05;;;;;;;1.11;100.00;101497.03;5115243;28;20489;-76
2023/03/03 05:47:58;;;;;;;16.58;6.57;;;;;;;1.10;100.00;101499.56;5118984;28;20018;-76
2023/03/03 05:50:29;;;;;;;19.55;6.53;;;;;;;0.98;100.00;101505.38;5132622;28;20022;-76
2023/03/03 05:52:59;;;;;;;16.58;6.10;;;;;;;1.03;100.00;101498.59;5136251;28;20042;-75
2023/03/03 05:55:30;;;;;;;16.20;6.25;;;;;;;1.02;100.00;101508.84;5140378;28;20015;-76
2023/03/03 05:58:00;;;;;;;19.52;6.38;;;;;;;0.94;100.00;101516.47;5127893;28;20049;-74
2023/03/03 06:00:30;;;;;;;18.55;6.38;;;;;;;1.00;100.00;101520.81;5133484;28;20094;-75
2023/03/03 06:03:00;;;;;;;18.33;6.63;;;;;;;1.03;100.00;101521.75;5131253;28;20030;-76
2023/03/03 06:05:31;;;;;;;16.75;6.72;;;;;;;1.03;100.00;101526.91;5130679;28;20084;-76
2023/03/03 06:08:01;;;;;;;18.35;6.10;;;;;;;0.92;100.00;101530.13;5131017;28;20482;-75
2023/03/03 06:10:31;;;;;;;18.55;6.82;;;;;;;1.05;100.00;101532.09;5141216;28;20022;-75
2023/03/03 06:13:02;;;;;;;18.67;6.97;;;;;;;1.06;100.00;101534.69;5134641;28;20034;-76
2023/03/03 06:15:32;;;;;;;20.58;6.75;;;;;;;0.96;100.00;101537.94;5130539;28;20031;-75
2023/03/03 06:18:03;;;;;;;19.63;6.78;;;;;;;1.08;100.00;101548.44;5133599;28;20062;-75
2023/03/03 06:20:34;;;;;;;22.52;7.32;;;;;;;1.07;100.00;101554.41;5134727;28;20444;-75
2023/03/03 06:23:04;;;;;;;25.80;7.80;;;;;;;1.04;100.00;101546.66;5129063;28;20039;-74
2023/03/03 06:25:35;;;;;;;21.27;6.95;;;;;;;1.11;100.00;101553.66;5127786;28;20042;-73
2023/03/03 06:28:05;;;;;;;22.15;7.63;;;;;;;1.21;100.00;101550.38;5129648;28;20851;-75
2023/03/03 06:30:35;;;;;;;22.55;7.70;;;;;;;1.09;100.00;101547.59;5138201;28;20454;-76
2023/03/03 06:33:06;;;;;;;22.23;7.47;;;;;;;1.19;100.00;101556.34;5138129;28;20222;-76
2023/03/03 06:35:36;;;;;;;20.02;6.88;;;;;;;1.21;100.00;101554.69;5139112;28;20732;-76
2023/03/03 06:38:06;;;;;;;20.48;6.95;;;;;;;1.11;100.00;101556.22;5120875;28;20043;-76
2023/03/03 06:40:37;;;;;;;22.23;7.25;;;;;;;1.05;100.00;101561.25;5116346;28;20517;-77
2023/03/03 06:43:08;;;;;;;19.90;7.32;;;;;;;1.30;100.00;101559.97;5125596;28;20039;-76
2023/03/03 06:45:38;;;;;;;18.85;7.07;;;;;;;1.19;100.00;101561.50;5132995;28;20045;-76
2023/03/03 06:48:09;;;;;;;25.98;8.15;;;;;;;1.34;100.00;101554.91;5131397;28;20030;-76
2023/03/03 06:50:39;;;;;;;23.45;8.23;;;;;;;1.17;100.00;101560.59;5130202;28;20439;-76
2023/03/03 06:53:16;;;;;;;20.75;7.55;;;;;;;1.29;100.00;101566.84;5134957;28;20061;-76
2023/03/03 06:55:46;;;;;;;22.38;8.23;;;;;;;1.33;100.00;101555.75;5132720;28;20022;-76
2023/03/03 06:58:20;;;;;;;29.13;10.18;;;;;;;1.34;100.00;101562.63;5128888;28;20031;-76
2023/03/03 07:01:00;;;;;;;46.00;15.40;;;;;;;1.24;100.00;101559.88;5137423;28;20771;-77
2023/03/03 07:03:34;;;;;;;27.20;10.88;;;;;;;1.39;100.00;101558.44;5130664;28;20495;-76
2023/03/03 07:06:19;;;;;;;33.70;10.85;;;;;;;1.40;100.00;101570.47;5129139;28;20462;-76
2023/03/03 07:08:51;;;;;;;46.53;16.63;;;;;;;1.49;100.00;101565.47;5190227;23;20504;-70
2023/03/03 07:11:22;;;;;;;36.97;13.90;;;;;;;1.53;100.00;101563.78;5141734;28;20535;-73
2023/03/03 07:13:54;;;;;;;52.92;19.13;;;;;;;1.50;100.00;101569.78;5139616;28;20035;-76
2023/03/03 07:16:26;;;;;;;53.05;19.85;;;;;;;1.51;100.00;101575.78;5128075;28;20408;-73
2023/03/03 07:19:04;;;;;;;41.30;14.93;;;;;;;1.63;100.00;101582.03;5137470;28;20042;-74
2023/03/03 07:21:36;;;;;;;40.08;12.98;;;;;;;1.45;100.00;101576.56;5146628;28;20079;-75
2023/03/03 07:24:26;;;;;;;30.10;11.35;;;;;;;1.57;100.00;101589.63;5150518;28;20023;-76
2023/03/03 07:27:05;;;;;;;27.35;9.93;;;;;;;1.42;100.00;101586.78;5134048;28;20037;-74
2023/03/03 07:29:40;;;;;;;28.98;9.88;;;;;;;1.61;100.00;101585.41;5150845;28;20418;-74
2023/03/03 07:32:37;;;;;;;32.17;10.57;;;;;;;1.52;100.00;101583.56;5146054;28;20026;-74
2023/03/03 07:35:28;;;;;;;29.40;11.45;;;;;;;1.45;100.00;101583.41;5157844;28;20473;-74
2023/03/03 07:37:59;;;;;;;28.58;9.95;;;;;;;1.51;100.00;101592.13;5150027;28;20038;-76
2023/03/03 07:40:32;;;;;;;34.72;11.40;;;;;;;1.55;100.00;101586.16;5152958;28;20036;-73
2023/03/03 07:43:17;;;;;;;31.17;11.38;;;;;;;1.53;100.00;101589.56;5150537;28;20038;-74
2023/03/03 07:45:48;;;;;;;26.75;9.95;;;;;;;1.59;100.00;101593.09;5154796;28;20510;-74
2023/03/03 07:48:26;;;;;;;31.45;10.32;;;;;;;1.57;100.00;101602.50;5159173;28;20043;-74
2023/03/03 07:51:02;;;;;;;25.42;9.45;;;;;;;1.55;100.00;101593.91;5130020;28;20031;-73
2023/03/03 07:53:35;;;;;;;26.08;8.95;;;;;;;1.47;100.00;101603.22;5136375;28;20202;-74
2023/03/03 07:56:33;;;;;;;30.08;9.85;;;;;;;1.52;100.00;101603.28;5148030;28;20050;-75
2023/03/03 07:59:19;;;;;;;25.52;9.48;;;;;;;1.50;100.00;101603.25;5142256;28;20042;-74
2023/03/03 08:01:56;;;;;;;27.45;9.40;;;;;;;1.64;100.00;101608.63;5131879;28;20030;-74
2023/03/03 08:04:39;;;;;;;27.33;10.13;;;;;;;1.70;100.00;101619.03;5149821;28;20017;-74
2023/03/03 08:07:18;;;;;;;26.55;9.90;;;;;;;1.90;100.00;101613.38;5161428;28;20472;-73
2023/03/03 08:09:55;;;;;;;28.95;10.00;;;;;;;1.71;100.00;101615.66;5148601;28;20039;-75
2023/03/03 08:12:46;;;;;;;26.40;9.63;;;;;;;1.96;100.00;101616.06;5136264;28;20173;-73
2023/03/03 08:15:18;;;;;;;24.58;8.70;;;;;;;1.90;100.00;101610.78;5135470;28;20022;-73
2023/03/03 08:17:50;;;;;;;24.92;9.48;;;;;;;2.10;100.00;101617.13;5152191;28;20077;-76
2023/03/03 08:20:50;;;;;;;22.35;8.43;;;;;;;1.95;100.00;101622.03;5132226;28;20673;-74
2023/03/03 08:23:21;;;;;;;21.13;8.13;;;;;;;1.97;100.00;101618.66;5147968;28;20415;-74
2023/03/03 08:25:52;;;;;;;25.88;8.57;;;;;;;2.00;100.00;101623.84;5152630;28;20033;-75
2023/03/03 08:28:22;;;;;;;28.80;8.45;;;;;;;2.12;100.00;101620.56;5151954;28;20056;-74
2023/03/03 08:30:53;;;;;;;27.52;9.27;;;;;;;2.02;100.00;101608.41;5150298;28;20031;-75
2023/03/03 08:33:23;;;;;;;25.80;8.57;;;;;;;2.07;100.00;101617.06;5145546;28;20411;-74
2023/03/03 08:35:53;;;;;;;28.38;9.95;;;;;;;2.12;100.00;101618.00;5150917;28;20410;-75
2023/03/03 08:38:24;;;;;;;24.00;8.77;;;;;;;2.08;100.00;101619.69;5150352;28;20022;-74
2023/03/03 08:40:55;;;;;;;26.00;8.73;;;;;;;2.29;100.00;101626.84;5152288;28;20037;-75
2023/03/03 08:43:25;;;;;;;24.20;8.90;;;;;;;2.26;100.00;101624.22;5149141;28;20049;-72
2023/03/03 08:46:01;;;;;;;25.13;8.70;;;;;;;2.02;100.00;101629.03;5153614;28;20283;-74
2023/03/03 08:48:32;;;;;;;27.67;9.48;;;;;;;2.37;100.00;101630.41;5149831;28;20049;-75
2023/03/03 08:51:03;;;;;;;27.33;9.82;;;;;;;2.24;100.00;101631.97;5154945;28;20483;-73
2023/03/03 08:53:35;;;;;;;28.55;10.85;;;;;;;2.16;100.00;101624.97;5156616;28;20026;-75
2023/03/03 08:56:05;;;;;;;25.25;10.18;;;;;;;2.33;100.00;101623.50;5143648;28;20030;-74
2023/03/03 08:58:36;;;;;;;25.70;10.25;;;;;;;2.27;100.00;101620.81;5150597;28;20030;-74
2023/03/03 09:01:06;;;;;;;30.85;9.70;;;;;;;2.46;100.00;101615.94;5168828;28;20027;-74
2023/03/03 09:03:36;;;;;;;25.55;9.27;;;;;;;2.36;100.00;101621.81;5152422;28;20403;-74
2023/03/03 09:06:07;;;;;;;26.10;8.60;;;;;;;2.23;100.00;101622.50;5157558;28;20132;-73
2023/03/03 09:08:37;;;;;;;24.60;9.75;;;;;;;2.15;100.00;101626.66;5167826;28;20322;-74
2023/03/03 09:11:11;;;;;;;26.35;9.57;;;;;;;2.49;100.00;101615.13;5132822;28;20444;-73
2023/03/03 09:13:41;;;;;;;24.42;9.27;;;;;;;2.47;100.00;101616.81;5147071;28;20038;-73
2023/03/03 09:16:14;;;;;;;22.88;8.73;;;;;;;2.46;100.00;101617.63;5154662;28;20388;-73
2023/03/03 09:18:44;;;;;;;24.23;8.90;;;;;;;2.48;100.00;101626.28;5147759;28;20039;-72
2023/03/03 09:21:25;;;;;;;25.45;9.07;;;;;;;2.49;100.00;101625.44;5155172;28;20031;-75
2023/03/03 09:23:57;;;;;;;24.27;9.35;;;;;;;2.64;100.00;101621.34;5147833;28;20340;-74
2023/03/03 09:26:39;;;;;;;24.98;9.00;;;;;;;2.55;100.00;101620.34;5151818;28;20026;-73
2023/03/03 09:29:39;;;;;;;26.27;10.00;;;;;;;2.45;100.00;101611.63;5150155;28;20049;-74
2023/03/03 09:32:18;;;;;;;23.80;8.45;;;;;;;2.40;100.00;101617.56;5142624;28;20118;-74
2023/03/03 09:34:49;;;;;;;26.23;9.00;;;;;;;2.61;100.00;101613.56;5147027;28;20465;-73
2023/03/03 09:37:35;;;;;;;25.52;9.32;;;;;;;2.68;100.00;101617.09;5162552;28;20054;-74
2023/03/03 09:40:36;;;;;;;26.02;8.80;;;;;;;2.61;100.00;101613.56;5153181;28;20026;-73
2023/03/03 09:43:22;;;;;;;27.17;9.75;;;;;;;2.72;100.00;101616.28;5154579;28;20046;-73
2023/03/03 09:46:35;;;;;;;25.83;9.25;;;;;;;2.93;100.00;101609.66;5149675;28;20035;-73
2023/03/03 09:49:08;;;;;;;25.58;9.57;;;;;;;2.85;100.00;101610.44;5150746;28;20133;-75
2023/03/03 09:51:58;;;;;;;26.33;9.50;;;;;;;2.47;100.00;101619.41;5148105;28;20041;-75
2023/03/03 09:54:38;;;;;;;26.40;9.90;;;;;;;2.50;100.00;101627.19;5146145;28;20030;-74
2023/03/03 09:57:22;;;;;;;24.23;9.32;;;;;;;2.60;100.00;101626.44;5152692;28;20046;-75
2023/03/03 10:00:23;;;;;;;29.20;11.68;;;;;;;2.55;100.00;101621.25;5147225;28;20027;-73
2023/03/03 10:03:10;;;;;;;28.90;10.95;;;;;;;2.64;100.00;101626.50;5149667;28;20045;-74
2023/03/03 10:05:55;;;;;;;20.75;8.55;;;;;;;2.84;100.00;101629.34;5152231;28;20026;-75
2023/03/03 10:08:44;;;;;;;25.30;8.88;;;;;;;3.01;100.00;101625.25;5153633;28;20418;-74
2023/03/03 10:11:36;;;;;;;23.40;8.57;;;;;;;3.10;100.00;101627.91;5150883;28;20088;-73
2023/03/03 10:14:20;;;;;;;23.05;8.13;;;;;;;3.08;100.00;101632.19;5146425;28;20084;-75
2023/03/03 10:17:21;;;;;;;22.60;8.65;;;;;;;2.96;100.00;101627.78;5141054;28;20038;-73
2023/03/03 10:20:21;;;;;;;24.92;8.35;;;;;;;3.03;100.00;101639.88;5149064;28;20061;-74
2023/03/03 10:23:02;;;;;;;24.08;8.93;;;;;;;3.24;100.00;101628.94;5146997;28;20053;-73
2023/03/03 10:26:04;;;;;;;20.40;8.50;;;;;;;3.08;100.00;101630.50;5147002;28;20018;-74
2023/03/03 10:28:47;;;;;;;22.05;8.00;;;;;;;3.14;100.00;101634.84;5139603;28;20038;-73
2023/03/03 10:31:34;;;;;;;18.63;7.75;;;;;;;3.29;100.00;101637.59;5162088;28;20422;-74
2023/03/03 10:34:22;;;;;;;21.55;7.90;;;;;;;3.41;100.00;101635.16;5152423;28;20034;-74
2023/03/03 10:37:00;;;;;;;20.83;7.50;;;;;;;3.25;100.00;101628.97;5153318;28;20033;-75
2023/03/03 10:39:38;;;;;;;20.30;7.13;;;;;;;3.25;100.00;101631.56;5137070;28;20117;-73
2023/03/03 10:42:42;;;;;;;19.17;7.53;;;;;;;3.31;100.00;101628.13;5130674;28;20034;-74
2023/03/03 10:45:50;;;;;;;22.58;8.25;;;;;;;3.29;100.00;101629.84;5148293;28;20179;-75
2023/03/03 10:48:49;;;;;;;21.17;7.60;;;;;;;3.58;100.00;101636.19;5148288;28;20030;-75
2023/03/03 10:51:36;;;;;;;19.38;7.75;;;;;;;3.54;100.00;101635.28;5146954;28;20030;-76
2023/03/03 10:54:34;;;;;;;19.55;7.65;;;;;;;3.75;100.00;101635.50;5147962;28;20034;-74
2023/03/03 10:57:13;;;;;;;24.05;8.43;;;;;;;3.98;100.00;101626.19;5131173;28;20114;-73
2023/03/03 10:59:59;;;;;;;22.63;8.85;;;;;;;3.85;100.00;101633.00;5147731;28;20076;-75
2023/03/03 11:03:07;;;;;;;23.23;9.32;;;;;;;3.81;100.00;101626.03;5146666;28;20026;-72
2023/03/03 11:05:49;;;;;;;29.90;10.75;;;;;;;3.67;100.00;101631.97;5142738;28;20058;-74
2023/03/03 11:08:27;;;;;;;24.55;9.65;;;;;;;4.01;100.00;101624.50;5153740;28;20037;-76
2023/03/03 11:11:14;;;;;;;32.95;11.00;;;;;;;4.03;100.00;101617.63;5148598;28;20068;-74
2023/03/03 11:13:54;;;;;;;33.17;11.65;;;;;;;3.96;100.00;101621.00;5129964;28;20031;-75
2023/03/03 11:16:47;;;;;;;28.00;10.90;;;;;;;4.06;100.00;101617.63;5153804;28;20243;-74
2023/03/03 11:19:46;;;;;;;28.52;11.27;;;;;;;4.05;100.00;101615.03;5146981;28;20045;-75
2023/03/03 11:22:28;;;;;;;34.83;12.90;;;;;;;4.02;100.00;101608.13;5151893;28;20080;-74
2023/03/03 11:25:08;;;;;;;35.35;12.88;;;;;;;3.91;100.00;101619.22;5137862;28;20037;-75
2023/03/03 11:27:44;;;;;;;38.53;12.57;;;;;;;3.89;100.00;101615.78;5128611;28;20493;-75
2023/03/03 11:30:27;;;;;;;30.48;11.98;;;;;;;3.85;100.00;101606.25;5148179;28;20114;-75
2023/03/03 11:33:03;;;;;;;34.63;11.57;;;;;;;4.00;100.00;101612.44;5150195;28;20149;-73
2023/03/03 11:36:00;;;;;;;32.30;11.10;;;;;;;3.96;100.00;101610.66;5133428;28;20378;-73
2023/03/03 11:38:33;;;;;;;32.97;11.63;;;;;;;4.03;100.00;101602.09;5152489;28;20026;-75
2023/03/03 11:41:19;;;;;;;38.30;12.25;;;;;;;4.10;100.00;101596.09;5128789;28;20031;-73
2023/03/03 11:43:55;;;;;;;29.20;10.20;;;;;;;4.20;100.00;101597.03;5147049;28;20049;-74
2023/03/03 11:46:35;;;;;;;34.25;12.07;;;;;;;4.09;100.00;101603.88;5145527;28;20053;-73
2023/03/03 11:49:14;;;;;;;35.47;12.40;;;;;;;4.38;100.00;101591.97;5147991;28;20042;-73
2023/03/03 11:52:02;;;;;;;39.65;12.65;;;;;;;4.22;100.00;101592.72;5144350;28;20259;-75
2023/03/03 11:54:41;;;;;;;42.35;12.98;;;;;;;4.27;100.00;101591.91;5159678;28;20026;-73
2023/03/03 11:57:29;;;;;;;26.15;9.75;;;;;;;4.50;100.00;101595.47;5133588;28;20117;-73